Wetterdaten: Donnerstag, 05.07.2012
Datum Zeit Temperatur Luftfeuchte Regen Wind Richtung Richtung Taupunkt Windchill Windben
05.07.2012 00:00 14,3 C 94 % 0,0 l/m 0,5 km/h (0 Bft) N 360 13,3 C 14,3 C 0,0 km/h (0 Bft)
05.07.2012 00:05 14,3 C 94 % 0,0 l/m 0,3 km/h (0 Bft) N-NW 337 13,3 C 14,3 C 0,0 km/h (0 Bft)
05.07.2012 00:10 14,3 C 94 % 0,0 l/m 0,2 km/h (0 Bft) O 90 13,3 C 14,2 C 0,0 km/h (0 Bft)
05.07.2012 00:15 14,3 C 94 % 0,0 l/m 0,0 km/h (0 Bft) N 360 13,3 C 14,2 C 0,0 km/h (0 Bft)
05.07.2012 00:20 14,2 C 94 % 0,0 l/m 0,6 km/h (0 Bft) S 180 13,2 C 14,2 C 5,6 km/h (1 Bft)
05.07.2012 00:25 14,2 C 94 % 0,0 l/m 1,0 km/h (0 Bft) NO 45 13,2 C 14,2 C 0,0 km/h (0 Bft)
05.07.2012 00:30 14,1 C 94 % 0,0 l/m 1,6 km/h (1 Bft) SO 135 13,1 C 14,1 C 1,9 km/h (1 Bft)
05.07.2012 00:35 14,0 C 94 % 0,0 l/m 1,4 km/h (1 Bft) NW 315 13,0 C 14,1 C 2,3 km/h (1 Bft)
05.07.2012 00:40 13,8 C 94 % 0,0 l/m 0,6 km/h (0 Bft) NO 45 12,9 C 13,9 C 0,0 km/h (0 Bft)
05.07.2012 00:45 13,8 C 94 % 0,0 l/m 0,2 km/h (0 Bft) S 180 12,9 C 13,8 C 0,0 km/h (0 Bft)
05.07.2012 00:50 13,8 C 94 % 0,0 l/m 0,5 km/h (0 Bft) S 180 12,9 C 13,7 C 3,1 km/h (1 Bft)
05.07.2012 00:55 13,7 C 94 % 0,0 l/m 0,5 km/h (0 Bft) NO 45 12,8 C 13,7 C 0,0 km/h (0 Bft)
05.07.2012 01:00 13,7 C 94 % 0,0 l/m 0,8 km/h (0 Bft) N-NW 337 12,8 C 13,6 C 2,1 km/h (1 Bft)
05.07.2012 01:05 13,7 C 94 % 0,0 l/m 1,1 km/h (1 Bft) S-SO 157 12,8 C 13,7 C 2,1 km/h (1 Bft)
05.07.2012 01:10 13,7 C 94 % 0,0 l/m 1,4 km/h (1 Bft) N 360 12,8 C 13,7 C 1,9 km/h (1 Bft)
05.07.2012 01:15 13,7 C 94 % 0,0 l/m 0,8 km/h (0 Bft) SO 135 12,8 C 13,7 C 0,0 km/h (0 Bft)
05.07.2012 01:20 13,8 C 94 % 0,0 l/m 0,6 km/h (0 Bft) NO 45 12,9 C 13,8 C 2,3 km/h (1 Bft)
05.07.2012 01:25 13,8 C 94 % 0,0 l/m 0,8 km/h (0 Bft) W-SW 247 12,9 C 13,9 C 0,0 km/h (0 Bft)
05.07.2012 01:30 14,0 C 94 % 0,0 l/m 0,6 km/h (0 Bft) W-SW 247 13,0 C 14,1 C 0,0 km/h (0 Bft)
05.07.2012 01:35 14,0 C 94 % 0,0 l/m 0,5 km/h (0 Bft) W-NW 292 13,0 C 14,1 C 0,0 km/h (0 Bft)
05.07.2012 01:40 14,1 C 94 % 0,0 l/m 1,1 km/h (1 Bft) W-NW 292 13,1 C 14,3 C 2,7 km/h (1 Bft)
05.07.2012 01:45 14,1 C 94 % 0,0 l/m 1,1 km/h (1 Bft) O 90 13,1 C 14,3 C 2,9 km/h (1 Bft)
05.07.2012 01:50 14,1 C 94 % 0,0 l/m 1,3 km/h (1 Bft) S 180 13,1 C 14,3 C 0,0 km/h (0 Bft)
05.07.2012 01:55 14,1 C 94 % 0,0 l/m 1,8 km/h (1 Bft) S 180 13,1 C 14,4 C 0,0 km/h (0 Bft)
05.07.2012 02:00 14,1 C 94 % 0,0 l/m 1,4 km/h (1 Bft) SO 135 13,1 C 14,4 C 2,6 km/h (1 Bft)
05.07.2012 02:05 14,1 C 94 % 0,0 l/m 1,0 km/h (0 Bft) S 180 13,1 C 14,4 C 1,6 km/h (1 Bft)
05.07.2012 02:10 14,2 C 94 % 0,0 l/m 1,4 km/h (1 Bft) N-NO 22 13,2 C 14,3 C 2,3 km/h (1 Bft)
05.07.2012 02:15 14,3 C 94 % 0,0 l/m 2,6 km/h (1 Bft) O-SO 112 13,3 C 14,5 C 3,4 km/h (1 Bft)
05.07.2012 02:20 14,2 C 94 % 0,0 l/m 2,9 km/h (1 Bft) N 360 13,2 C 14,6 C 13,0 km/h (3 Bft)
05.07.2012 02:25 14,2 C 94 % 0,0 l/m 1,8 km/h (1 Bft) O-SO 112 13,2 C 14,5 C 0,0 km/h (0 Bft)
05.07.2012 02:30 14,1 C 94 % 0,0 l/m 0,5 km/h (0 Bft) W-SW 247 13,1 C 14,3 C 0,0 km/h (0 Bft)
05.07.2012 02:35 14,1 C 94 % 0,0 l/m 0,2 km/h (0 Bft) NW 315 13,1 C 14,2 C 0,0 km/h (0 Bft)
05.07.2012 02:40 14,0 C 94 % 0,0 l/m 0,0 km/h (0 Bft) N 360 13,0 C 14,0 C 0,0 km/h (0 Bft)
05.07.2012 02:45 13,9 C 94 % 0,0 l/m 0,0 km/h (0 Bft) W-SW 247 12,9 C 13,9 C 0,0 km/h (0 Bft)
05.07.2012 02:50 13,9 C 94 % 0,0 l/m 0,2 km/h (0 Bft) N-NW 337 12,9 C 13,9 C 0,0 km/h (0 Bft)
05.07.2012 02:55 13,9 C 94 % 0,0 l/m 0,8 km/h (0 Bft) NW 315 12,9 C 13,8 C 2,4 km/h (1 Bft)
05.07.2012 03:00 13,8 C 94 % 0,0 l/m 0,8 km/h (0 Bft) S-SO 157 12,9 C 13,7 C 0,0 km/h (0 Bft)
05.07.2012 03:05 13,6 C 94 % 0,0 l/m 0,6 km/h (0 Bft) S-SO 157 12,7 C 13,6 C 2,4 km/h (1 Bft)
05.07.2012 03:10 13,5 C 94 % 0,0 l/m 0,3 km/h (0 Bft) S-SW 202 12,6 C 13,4 C 0,0 km/h (0 Bft)
05.07.2012 03:15 13,3 C 94 % 0,0 l/m 0,3 km/h (0 Bft) S 180 12,4 C 13,4 C 0,0 km/h (0 Bft)
05.07.2012 03:20 13,2 C 94 % 0,0 l/m 0,6 km/h (0 Bft) SO 135 12,3 C 13,3 C 2,1 km/h (1 Bft)
05.07.2012 03:25 13,2 C 94 % 0,0 l/m 0,6 km/h (0 Bft) N 360 12,3 C 13,2 C 0,0 km/h (0 Bft)
05.07.2012 03:30 13,1 C 94 % 0,0 l/m 0,3 km/h (0 Bft) S-SW 202 12,2 C 13,1 C 2,9 km/h (1 Bft)
05.07.2012 03:35 13,1 C 94 % 0,0 l/m 0,6 km/h (0 Bft) N-NO 22 12,2 C 13,1 C 0,0 km/h (0 Bft)
05.07.2012 03:40 13,1 C 94 % 0,0 l/m 0,8 km/h (0 Bft) NO 45 12,2 C 12,9 C 0,0 km/h (0 Bft)
05.07.2012 03:45 12,9 C 95 % 0,0 l/m 0,2 km/h (0 Bft) N 360 12,1 C 12,8 C 0,0 km/h (0 Bft)
05.07.2012 03:50 12,9 C 95 % 0,0 l/m 0,2 km/h (0 Bft) O-SO 112 12,1 C 12,7 C 0,0 km/h (0 Bft)
05.07.2012 03:55 12,8 C 95 % 0,0 l/m 0,2 km/h (0 Bft) S-SO 157 12,0 C 12,6 C 0,0 km/h (0 Bft)
05.07.2012 04:00 12,6 C 95 % 0,0 l/m 0,2 km/h (0 Bft) NO 45 11,8 C 12,5 C 1,6 km/h (1 Bft)
05.07.2012 04:05 12,6 C 95 % 0,0 l/m 0,6 km/h (0 Bft) N-NW 337 11,8 C 12,6 C 1,9 km/h (1 Bft)
05.07.2012 04:10 12,8 C 95 % 0,0 l/m 1,3 km/h (1 Bft) N-NO 22 12,0 C 12,7 C 0,0 km/h (0 Bft)
05.07.2012 04:15 12,7 C 95 % 0,0 l/m 1,1 km/h (1 Bft) N 360 11,9 C 12,7 C 2,1 km/h (1 Bft)
05.07.2012 04:20 12,6 C 95 % 0,0 l/m 0,5 km/h (0 Bft) SO 135 11,8 C 12,5 C 0,0 km/h (0 Bft)
05.07.2012 04:25 12,5 C 95 % 0,0 l/m 1,0 km/h (0 Bft) O-SO 112 11,7 C 12,5 C 2,6 km/h (1 Bft)
05.07.2012 04:30 12,3 C 95 % 0,0 l/m 1,1 km/h (1 Bft) O-SO 112 11,5 C 12,4 C 0,0 km/h (0 Bft)
05.07.2012 04:35 12,3 C 95 % 0,0 l/m 0,8 km/h (0 Bft) N-NO 22 11,5 C 12,3 C 0,0 km/h (0 Bft)
05.07.2012 04:40 12,5 C 95 % 0,0 l/m 0,3 km/h (0 Bft) W-NW 292 11,7 C 12,2 C 0,0 km/h (0 Bft)
05.07.2012 04:45 12,4 C 95 % 0,0 l/m 0,2 km/h (0 Bft) S-SW 202 11,6 C 12,2 C 0,0 km/h (0 Bft)
05.07.2012 04:50 12,2 C 95 % 0,0 l/m 0,8 km/h (0 Bft) O-SO 112 11,4 C 12,1 C 3,7 km/h (1 Bft)
05.07.2012 04:55 12,3 C 95 % 0,0 l/m 1,8 km/h (1 Bft) SO 135 11,5 C 12,2 C 4,8 km/h (1 Bft)
05.07.2012 05:00 12,1 C 95 % 0,0 l/m 2,1 km/h (1 Bft) W 270 11,3 C 12,2 C 0,0 km/h (0 Bft)
05.07.2012 05:05 12,2 C 95 % 0,0 l/m 1,4 km/h (1 Bft) N-NW 337 11,4 C 12,0 C 0,0 km/h (0 Bft)
05.07.2012 05:10 12,0 C 95 % 0,0 l/m 0,2 km/h (0 Bft) NO 45 11,2 C 11,9 C 0,0 km/h (0 Bft)
05.07.2012 05:15 12,2 C 95 % 0,0 l/m 0,5 km/h (0 Bft) NO 45 11,4 C 11,8 C 0,0 km/h (0 Bft)
05.07.2012 05:20 12,0 C 95 % 0,0 l/m 0,5 km/h (0 Bft) O 90 11,2 C 11,8 C 0,0 km/h (0 Bft)
05.07.2012 05:25 12,0 C 95 % 0,0 l/m 0,3 km/h (0 Bft) N 360 11,2 C 11,7 C 0,0 km/h (0 Bft)
05.07.2012 05:30 12,1 C 95 % 0,0 l/m 0,2 km/h (0 Bft) N-NO 22 11,3 C 11,7 C 0,0 km/h (0 Bft)
05.07.2012 05:35 12,0 C 95 % 0,0 l/m 0,2 km/h (0 Bft) N-NO 22 11,2 C 11,7 C 0,0 km/h (0 Bft)
05.07.2012 05:40 12,1 C 95 % 0,0 l/m 0,3 km/h (0 Bft) N 360 11,3 C 11,7 C 2,9 km/h (1 Bft)
05.07.2012 05:45 12,0 C 95 % 0,0 l/m 0,5 km/h (0 Bft) N-NO 22 11,2 C 11,9 C 0,0 km/h (0 Bft)
05.07.2012 05:50 12,1 C 95 % 0,0 l/m 0,6 km/h (0 Bft) N 360 11,3 C 12,0 C 3,4 km/h (1 Bft)
05.07.2012 05:55 12,2 C 95 % 0,0 l/m 0,6 km/h (0 Bft) NO 45 11,4 C 12,1 C 0,0 km/h (0 Bft)
05.07.2012 06:00 12,3 C 95 % 0,0 l/m 0,5 km/h (0 Bft) N-NO 22 11,5 C 12,2 C 0,0 km/h (0 Bft)
05.07.2012 06:05 12,4 C 95 % 0,0 l/m 0,2 km/h (0 Bft) N-NO 22 11,6 C 12,7 C 0,0 km/h (0 Bft)
05.07.2012 06:10 12,7 C 95 % 0,0 l/m 0,2 km/h (0 Bft) N-NO 22 11,9 C 13,5 C 2,1 km/h (1 Bft)
05.07.2012 06:15 13,1 C 94 % 0,0 l/m 0,3 km/h (0 Bft) N-NO 22 12,2 C 13,9 C 1,8 km/h (1 Bft)
05.07.2012 06:20 13,2 C 94 % 0,0 l/m 0,5 km/h (0 Bft) N 360 12,3 C 14,1 C 0,0 km/h (0 Bft)
05.07.2012 06:25 13,1 C 94 % 0,0 l/m 0,2 km/h (0 Bft) N-NO 22 12,2 C 14,0 C 0,0 km/h (0 Bft)
05.07.2012 06:30 13,3 C 94 % 0,0 l/m 0,2 km/h (0 Bft) N 360 12,4 C 13,7 C 0,0 km/h (0 Bft)
05.07.2012 06:35 13,9 C 94 % 0,0 l/m 0,2 km/h (0 Bft) N-NO 22 12,9 C 14,1 C 5,1 km/h (1 Bft)
05.07.2012 06:40 14,4 C 94 % 0,0 l/m 0,6 km/h (0 Bft) N-NO 22 13,4 C 14,8 C 0,0 km/h (0 Bft)
05.07.2012 06:45 14,5 C 94 % 0,0 l/m 0,6 km/h (0 Bft) NO 45 13,5 C 15,3 C 0,0 km/h (0 Bft)
05.07.2012 06:50 15,8 C 94 % 0,0 l/m 0,5 km/h (0 Bft) N 360 14,8 C 16,1 C 4,2 km/h (1 Bft)
05.07.2012 06:55 15,9 C 93 % 0,0 l/m 0,6 km/h (0 Bft) N 360 14,8 C 16,8 C 2,7 km/h (1 Bft)
05.07.2012 07:00 16,5 C 91 % 0,0 l/m 1,0 km/h (0 Bft) N 360 15,0 C 18,0 C 3,2 km/h (1 Bft)
05.07.2012 07:05 15,9 C 91 % 0,0 l/m 1,0 km/h (0 Bft) NO 45 14,4 C 18,4 C 1,9 km/h (1 Bft)
05.07.2012 07:10 16,6 C 90 % 0,0 l/m 1,0 km/h (0 Bft) W-NW 292 15,0 C 18,1 C 0,0 km/h (0 Bft)
05.07.2012 07:15 16,8 C 89 % 0,0 l/m 0,8 km/h (0 Bft) S-SW 202 15,0 C 18,6 C 0,0 km/h (0 Bft)
05.07.2012 07:20 16,9 C 89 % 0,0 l/m 0,6 km/h (0 Bft) N-NO 22 15,1 C 18,8 C 1,6 km/h (1 Bft)
05.07.2012 07:25 17,0 C 88 % 0,0 l/m 1,0 km/h (0 Bft) N 360 15,0 C 19,1 C 2,4 km/h (1 Bft)
05.07.2012 07:30 15,5 C 89 % 0,0 l/m 0,6 km/h (0 Bft) NO 45 13,7 C 18,2 C 0,0 km/h (0 Bft)
05.07.2012 07:35 16,8 C 89 % 0,0 l/m 0,5 km/h (0 Bft) SW 225 15,0 C 17,8 C 0,0 km/h (0 Bft)
05.07.2012 07:40 16,6 C 88 % 0,0 l/m 0,3 km/h (0 Bft) N 360 14,6 C 18,6 C 0,0 km/h (0 Bft)
05.07.2012 07:45 18,9 C 87 % 0,0 l/m 0,2 km/h (0 Bft) O-SO 112 16,7 C 19,6 C 3,9 km/h (1 Bft)
05.07.2012 07:50 16,4 C 87 % 0,0 l/m 0,5 km/h (0 Bft) N 360 14,2 C 19,6 C 0,0 km/h (0 Bft)
05.07.2012 07:55 18,1 C 87 % 0,0 l/m 0,5 km/h (0 Bft) NO 45 15,9 C 19,2 C 0,0 km/h (0 Bft)
05.07.2012 08:00 20,2 C 84 % 0,0 l/m 0,2 km/h (0 Bft) SO 135 17,4 C 21,4 C 0,0 km/h (0 Bft)
05.07.2012 08:05 20,9 C 83 % 0,0 l/m 0,2 km/h (0 Bft) N-NO 22 17,9 C 23,0 C 0,0 km/h (0 Bft)
05.07.2012 08:10 21,6 C 80 % 0,0 l/m 0,6 km/h (0 Bft) W 270 18,0 C 24,6 C 2,9 km/h (1 Bft)
05.07.2012 08:15 22,4 C 80 % 0,0 l/m 1,0 km/h (0 Bft) W-NW 292 18,8 C 25,1 C 1,9 km/h (1 Bft)
05.07.2012 08:20 22,3 C 77 % 0,0 l/m 1,3 km/h (1 Bft) N 360 18,1 C 26,0 C 0,0 km/h (0 Bft)
05.07.2012 08:25 22,6 C 77 % 0,0 l/m 0,8 km/h (0 Bft) NW 315 18,4 C 26,7 C 0,0 km/h (0 Bft)
05.07.2012 08:30 23,1 C 75 % 0,0 l/m 0,2 km/h (0 Bft) O-SO 112 18,4 C 27,5 C 0,0 km/h (0 Bft)
05.07.2012 08:35 23,8 C 73 % 0,0 l/m 1,0 km/h (0 Bft) S-SW 202 18,7 C 27,5 C 3,2 km/h (1 Bft)
05.07.2012 08:40 23,5 C 70 % 0,0 l/m 2,6 km/h (1 Bft) W 270 17,7 C 27,0 C 2,9 km/h (1 Bft)
05.07.2012 08:45 23,5 C 69 % 0,0 l/m 3,5 km/h (1 Bft) W 270 17,5 C 26,7 C 6,3 km/h (2 Bft)
05.07.2012 08:50 23,7 C 66 % 0,0 l/m 3,2 km/h (1 Bft) W-SW 247 17,1 C 26,5 C 3,5 km/h (1 Bft)
05.07.2012 08:55 23,6 C 67 % 0,0 l/m 3,1 km/h (1 Bft) W-SW 247 17,4 C 26,7 C 4,5 km/h (1 Bft)
05.07.2012 09:00 23,3 C 65 % 0,0 l/m 3,4 km/h (1 Bft) W-SW 247 16,6 C 25,9 C 6,0 km/h (2 Bft)
05.07.2012 09:05 23,4 C 69 % 0,0 l/m 3,5 km/h (1 Bft) W-SW 247 18,9 C 26,0 C 3,5 km/h (1 Bft)
05.07.2012 09:10 21,8 C 73 % 0,0 l/m 3,4 km/h (1 Bft) W 270 16,7 C 25,9 C 5,1 km/h (1 Bft)
05.07.2012 09:15 22,7 C 71 % 0,0 l/m 3,5 km/h (1 Bft) W-NW 292 17,2 C 24,5 C 5,5 km/h (1 Bft)
05.07.2012 09:20 23,2 C 60 % 0,0 l/m 3,7 km/h (1 Bft) NW 315 16,1 C 24,9 C 3,5 km/h (1 Bft)
05.07.2012 09:25 23,3 C 58 % 0,0 l/m 3,7 km/h (1 Bft) O-SO 112 15,3 C 25,5 C 6,0 km/h (2 Bft)
05.07.2012 09:30 23,4 C 62 % 0,0 l/m 3,9 km/h (1 Bft) W-SW 247 17,1 C 26,0 C 4,7 km/h (1 Bft)
05.07.2012 09:35 23,7 C 56 % 0,0 l/m 4,0 km/h (1 Bft) W-NW 292 15,4 C 26,3 C 3,2 km/h (1 Bft)
05.07.2012 09:40 23,8 C 58 % 0,0 l/m 3,5 km/h (1 Bft) W 270 16,3 C 26,7 C 7,4 km/h (2 Bft)
05.07.2012 09:45 23,7 C 61 % 0,0 l/m 3,4 km/h (1 Bft) S-SW 202 16,8 C 26,9 C 2,3 km/h (1 Bft)
05.07.2012 09:50 23,8 C 58 % 0,0 l/m 3,4 km/h (1 Bft) W-SW 247 16,1 C 27,0 C 4,3 km/h (1 Bft)
05.07.2012 09:55 22,9 C 61 % 0,0 l/m 2,6 km/h (1 Bft) W-NW 292 15,0 C 26,2 C 1,9 km/h (1 Bft)
05.07.2012 10:00 23,9 C 56 % 0,0 l/m 1,4 km/h (1 Bft) O 90 15,7 C 26,7 C 0,0 km/h (0 Bft)
05.07.2012 10:05 23,6 C 57 % 0,0 l/m 1,0 km/h (0 Bft) S-SO 157 14,7 C 26,7 C 2,3 km/h (1 Bft)
05.07.2012 10:10 24,3 C 56 % 0,0 l/m 1,3 km/h (1 Bft) W-SW 247 15,7 C 26,6 C 6,1 km/h (2 Bft)
05.07.2012 10:15 24,7 C 54 % 0,0 l/m 1,8 km/h (1 Bft) N-NW 337 15,9 C 27,3 C 0,0 km/h (0 Bft)
05.07.2012 10:20 24,9 C 52 % 0,0 l/m 2,4 km/h (1 Bft) W 270 15,0 C 28,1 C 4,0 km/h (1 Bft)
05.07.2012 10:25 25,1 C 53 % 0,0 l/m 2,1 km/h (1 Bft) NW 315 15,0 C 28,3 C 4,3 km/h (1 Bft)
05.07.2012 10:30 25,2 C 55 % 0,0 l/m 1,9 km/h (1 Bft) N 360 15,9 C 28,3 C 3,4 km/h (1 Bft)
05.07.2012 10:35 25,2 C 55 % 0,0 l/m 2,4 km/h (1 Bft) W-SW 247 15,8 C 28,1 C 5,1 km/h (1 Bft)
05.07.2012 10:40 25,4 C 49 % 0,0 l/m 2,7 km/h (1 Bft) N 360 13,9 C 28,3 C 4,7 km/h (1 Bft)
05.07.2012 10:45 25,2 C 53 % 0,0 l/m 1,9 km/h (1 Bft) N-NO 22 14,9 C 28,2 C 1,9 km/h (1 Bft)
05.07.2012 10:50 25,8 C 50 % 0,0 l/m 1,4 km/h (1 Bft) S-SW 202 14,8 C 28,6 C 0,0 km/h (0 Bft)
05.07.2012 10:55 26,1 C 49 % 0,0 l/m 1,8 km/h (1 Bft) SO 135 14,5 C 29,0 C 1,6 km/h (1 Bft)
05.07.2012 11:00 26,2 C 51 % 0,0 l/m 1,8 km/h (1 Bft) S 180 15,2 C 29,3 C 3,1 km/h (1 Bft)
05.07.2012 11:05 26,8 C 51 % 0,0 l/m 1,3 km/h (1 Bft) SO 135 15,8 C 29,9 C 0,0 km/h (0 Bft)
05.07.2012 11:10 25,7 C 53 % 0,0 l/m 1,6 km/h (1 Bft) W-NW 292 15,4 C 30,1 C 2,9 km/h (1 Bft)
05.07.2012 11:15 25,9 C 54 % 0,0 l/m 1,9 km/h (1 Bft) S-SO 157 15,9 C 29,7 C 3,9 km/h (1 Bft)
05.07.2012 11:20 25,7 C 55 % 0,0 l/m 1,9 km/h (1 Bft) NO 45 16,0 C 29,5 C 2,4 km/h (1 Bft)
05.07.2012 11:25 26,4 C 53 % 0,0 l/m 1,9 km/h (1 Bft) W-NW 292 16,0 C 29,5 C 1,9 km/h (1 Bft)
05.07.2012 11:30 25,9 C 54 % 0,0 l/m 1,6 km/h (1 Bft) W-SW 247 15,9 C 29,6 C 0,0 km/h (0 Bft)
05.07.2012 11:35 25,2 C 55 % 0,0 l/m 1,9 km/h (1 Bft) W 270 15,5 C 29,3 C 1,6 km/h (1 Bft)
05.07.2012 11:40 25,8 C 56 % 0,0 l/m 2,4 km/h (1 Bft) W-NW 292 16,3 C 29,3 C 3,2 km/h (1 Bft)
05.07.2012 11:45 25,9 C 54 % 0,0 l/m 2,6 km/h (1 Bft) N-NW 337 15,9 C 29,2 C 4,8 km/h (1 Bft)
05.07.2012 11:50 25,3 C 53 % 0,0 l/m 2,9 km/h (1 Bft) S-SW 202 15,0 C 28,8 C 4,5 km/h (1 Bft)
05.07.2012 11:55 26,3 C 52 % 0,0 l/m 2,4 km/h (1 Bft) S 180 15,6 C 28,8 C 0,0 km/h (0 Bft)
05.07.2012 12:00 26,5 C 49 % 0,0 l/m 2,9 km/h (1 Bft) W-SW 247 14,9 C 29,0 C 7,7 km/h (2 Bft)
05.07.2012 12:05 26,1 C 47 % 0,0 l/m 3,4 km/h (1 Bft) N-NW 337 13,9 C 28,6 C 0,0 km/h (0 Bft)
05.07.2012 12:10 26,6 C 50 % 0,0 l/m 2,4 km/h (1 Bft) S 180 15,3 C 29,5 C 3,9 km/h (1 Bft)
05.07.2012 12:15 26,9 C 50 % 0,0 l/m 2,4 km/h (1 Bft) W-SW 247 15,6 C 29,4 C 4,3 km/h (1 Bft)
05.07.2012 12:20 26,5 C 47 % 0,0 l/m 3,2 km/h (1 Bft) W 270 14,3 C 29,3 C 2,7 km/h (1 Bft)
05.07.2012 12:25 27,1 C 49 % 0,0 l/m 3,1 km/h (1 Bft) S 180 15,4 C 29,4 C 4,5 km/h (1 Bft)
05.07.2012 12:30 27,0 C 48 % 0,0 l/m 2,9 km/h (1 Bft) S 180 15,0 C 29,3 C 2,7 km/h (1 Bft)
05.07.2012 12:35 26,9 C 47 % 0,0 l/m 1,9 km/h (1 Bft) SO 135 14,6 C 29,3 C 0,0 km/h (0 Bft)
05.07.2012 12:40 26,3 C 49 % 0,0 l/m 2,1 km/h (1 Bft) S 180 14,7 C 29,4 C 4,7 km/h (1 Bft)
05.07.2012 12:45 27,0 C 47 % 0,0 l/m 3,1 km/h (1 Bft) O-SO 112 14,7 C 29,0 C 3,9 km/h (1 Bft)
05.07.2012 12:50 27,8 C 49 % 0,0 l/m 2,9 km/h (1 Bft) S 180 16,1 C 29,5 C 6,3 km/h (2 Bft)
05.07.2012 12:55 27,5 C 46 % 0,0 l/m 2,7 km/h (1 Bft) W 270 14,8 C 29,6 C 2,1 km/h (1 Bft)
05.07.2012 13:00 27,2 C 47 % 0,0 l/m 2,9 km/h (1 Bft) W 270 14,9 C 30,1 C 5,8 km/h (2 Bft)
05.07.2012 13:05 26,4 C 48 % 0,0 l/m 3,1 km/h (1 Bft) NW 315 14,5 C 29,3 C 0,0 km/h (0 Bft)
05.07.2012 13:10 27,3 C 47 % 0,0 l/m 2,9 km/h (1 Bft) SW 225 15,0 C 29,9 C 2,4 km/h (1 Bft)
05.07.2012 13:15 27,2 C 47 % 0,0 l/m 2,3 km/h (1 Bft) S 180 14,9 C 30,1 C 2,1 km/h (1 Bft)
05.07.2012 13:20 26,5 C 46 % 0,0 l/m 2,9 km/h (1 Bft) N-NO 22 13,9 C 29,2 C 2,4 km/h (1 Bft)
05.07.2012 13:25 27,3 C 48 % 0,0 l/m 2,7 km/h (1 Bft) SO 135 15,3 C 29,5 C 7,9 km/h (2 Bft)
05.07.2012 13:30 26,8 C 48 % 0,0 l/m 1,9 km/h (1 Bft) N-NW 337 14,9 C 29,5 C 0,0 km/h (0 Bft)
05.07.2012 13:35 27,1 C 48 % 0,0 l/m 2,4 km/h (1 Bft) S-SW 202 15,1 C 29,7 C 0,0 km/h (0 Bft)
05.07.2012 13:40 27,2 C 49 % 0,0 l/m 1,9 km/h (1 Bft) W 270 15,5 C 30,3 C 3,4 km/h (1 Bft)
05.07.2012 13:45 26,7 C 47 % 0,0 l/m 1,9 km/h (1 Bft) N 360 14,4 C 30,0 C 2,3 km/h (1 Bft)
05.07.2012 13:50 26,1 C 51 % 0,0 l/m 2,4 km/h (1 Bft) W-NW 292 15,2 C 29,4 C 5,1 km/h (1 Bft)
05.07.2012 13:55 26,3 C 50 % 0,0 l/m 2,4 km/h (1 Bft) W 270 15,0 C 29,0 C 4,5 km/h (1 Bft)
05.07.2012 14:00 27,2 C 50 % 0,0 l/m 4,0 km/h (1 Bft) W-NW 292 15,9 C 29,5 C 7,2 km/h (2 Bft)
05.07.2012 14:05 26,5 C 50 % 0,0 l/m 4,8 km/h (1 Bft) W-NW 292 15,2 C 29,2 C 5,1 km/h (1 Bft)
05.07.2012 14:10 27,3 C 51 % 0,0 l/m 6,0 km/h (2 Bft) W 270 16,3 C 28,9 C 10,3 km/h (2 Bft)
05.07.2012 14:15 26,9 C 50 % 0,0 l/m 5,6 km/h (1 Bft) W-NW 292 15,6 C 28,9 C 7,7 km/h (2 Bft)
05.07.2012 14:20 27,2 C 53 % 0,0 l/m 5,0 km/h (1 Bft) NW 315 16,8 C 28,8 C 5,3 km/h (1 Bft)
05.07.2012 14:25 27,3 C 54 % 0,0 l/m 4,8 km/h (1 Bft) W 270 17,2 C 29,3 C 12,9 km/h (3 Bft)
05.07.2012 14:30 27,2 C 50 % 0,0 l/m 4,3 km/h (1 Bft) W-NW 292 15,9 C 29,4 C 4,0 km/h (1 Bft)
05.07.2012 14:35 27,2 C 50 % 0,0 l/m 5,0 km/h (1 Bft) W-NW 292 15,9 C 29,4 C 6,1 km/h (2 Bft)
05.07.2012 14:40 27,6 C 50 % 0,0 l/m 5,1 km/h (1 Bft) W-NW 292 16,2 C 29,3 C 3,2 km/h (1 Bft)
05.07.2012 14:45 26,9 C 50 % 0,0 l/m 4,7 km/h (1 Bft) N 360 15,6 C 29,5 C 3,7 km/h (1 Bft)
05.07.2012 14:50 27,5 C 49 % 0,0 l/m 4,2 km/h (1 Bft) W-NW 292 15,8 C 29,6 C 4,3 km/h (1 Bft)
05.07.2012 14:55 27,4 C 50 % 0,0 l/m 3,7 km/h (1 Bft) O-SO 112 16,0 C 29,9 C 5,3 km/h (1 Bft)
05.07.2012 15:00 26,1 C 50 % 0,0 l/m 2,9 km/h (1 Bft) W 270 14,8 C 29,1 C 2,3 km/h (1 Bft)
05.07.2012 15:05 25,0 C 54 % 0,0 l/m 2,9 km/h (1 Bft) N 360 15,0 C 28,1 C 3,4 km/h (1 Bft)
05.07.2012 15:10 26,3 C 50 % 0,0 l/m 2,7 km/h (1 Bft) W 270 15,0 C 27,7 C 6,4 km/h (2 Bft)
05.07.2012 15:15 27,0 C 50 % 0,0 l/m 2,6 km/h (1 Bft) S 180 15,7 C 28,4 C 3,5 km/h (1 Bft)
05.07.2012 15:20 27,2 C 49 % 0,0 l/m 2,7 km/h (1 Bft) W-NW 292 15,5 C 29,7 C 2,7 km/h (1 Bft)
05.07.2012 15:25 27,1 C 46 % 0,0 l/m 2,4 km/h (1 Bft) S-SO 157 14,5 C 30,4 C 1,9 km/h (1 Bft)
05.07.2012 15:30 27,3 C 46 % 0,0 l/m 2,4 km/h (1 Bft) N-NO 22 14,6 C 30,4 C 1,9 km/h (1 Bft)
05.07.2012 15:35 27,3 C 45 % 0,0 l/m 3,2 km/h (1 Bft) S-SW 202 14,3 C 30,6 C 4,8 km/h (1 Bft)
05.07.2012 15:40 27,3 C 46 % 0,0 l/m 3,9 km/h (1 Bft) W-NW 292 14,6 C 30,3 C 6,3 km/h (2 Bft)
05.07.2012 15:45 27,3 C 46 % 0,0 l/m 3,4 km/h (1 Bft) NO 45 14,6 C 30,4 C 2,4 km/h (1 Bft)
05.07.2012 15:50 27,6 C 47 % 0,0 l/m 1,9 km/h (1 Bft) W-NW 292 15,3 C 31,3 C 3,7 km/h (1 Bft)
05.07.2012 15:55 27,5 C 45 % 0,0 l/m 2,9 km/h (1 Bft) W-SW 247 14,5 C 31,3 C 8,2 km/h (2 Bft)
05.07.2012 16:00 27,2 C 46 % 0,0 l/m 3,9 km/h (1 Bft) O 90 14,6 C 30,9 C 4,2 km/h (1 Bft)
05.07.2012 16:05 27,2 C 46 % 0,0 l/m 4,0 km/h (1 Bft) N 360 14,6 C 30,6 C 4,0 km/h (1 Bft)
05.07.2012 16:10 27,3 C 46 % 0,0 l/m 3,7 km/h (1 Bft) N-NW 337 14,6 C 30,7 C 3,2 km/h (1 Bft)
05.07.2012 16:15 27,2 C 46 % 0,0 l/m 3,1 km/h (1 Bft) N-NO 22 14,6 C 30,9 C 4,7 km/h (1 Bft)
05.07.2012 16:20 27,6 C 47 % 0,0 l/m 3,7 km/h (1 Bft) W-NW 292 15,3 C 31,1 C 11,4 km/h (2 Bft)
05.07.2012 16:25 27,5 C 45 % 0,0 l/m 4,5 km/h (1 Bft) W 270 14,5 C 30,6 C 6,9 km/h (2 Bft)
05.07.2012 16:30 27,0 C 46 % 0,0 l/m 5,3 km/h (1 Bft) W-NW 292 14,4 C 30,3 C 4,2 km/h (1 Bft)
05.07.2012 16:35 27,0 C 46 % 0,0 l/m 4,2 km/h (1 Bft) W 270 14,4 C 30,5 C 4,0 km/h (1 Bft)
05.07.2012 16:40 26,8 C 48 % 0,0 l/m 4,0 km/h (1 Bft) N-NW 337 14,9 C 30,3 C 8,0 km/h (2 Bft)
05.07.2012 16:45 26,4 C 47 % 0,0 l/m 4,5 km/h (1 Bft) W 270 14,2 C 30,0 C 3,4 km/h (1 Bft)
05.07.2012 16:50 26,7 C 48 % 0,0 l/m 3,5 km/h (1 Bft) S-SO 157 14,8 C 30,6 C 4,3 km/h (1 Bft)
05.07.2012 16:55 26,7 C 49 % 0,0 l/m 2,9 km/h (1 Bft) O-SO 112 15,1 C 30,8 C 2,3 km/h (1 Bft)
05.07.2012 17:00 26,4 C 50 % 0,0 l/m 3,4 km/h (1 Bft) W-NW 292 15,1 C 30,9 C 5,0 km/h (1 Bft)
05.07.2012 17:05 26,1 C 53 % 0,0 l/m 3,5 km/h (1 Bft) W 270 15,8 C 30,9 C 9,2 km/h (2 Bft)
05.07.2012 17:10 25,8 C 56 % 0,0 l/m 4,7 km/h (1 Bft) W 270 16,3 C 30,5 C 8,7 km/h (2 Bft)
05.07.2012 17:15 25,1 C 56 % 0,0 l/m 5,1 km/h (1 Bft) W-NW 292 15,7 C 29,4 C 2,1 km/h (1 Bft)
05.07.2012 17:20 24,4 C 58 % 0,0 l/m 3,4 km/h (1 Bft) NO 45 15,6 C 27,9 C 0,0 km/h (0 Bft)
05.07.2012 17:25 24,2 C 59 % 0,0 l/m 2,1 km/h (1 Bft) N 360 15,7 C 27,2 C 6,1 km/h (2 Bft)
05.07.2012 17:30 24,5 C 59 % 0,0 l/m 1,9 km/h (1 Bft) W-NW 292 15,9 C 26,6 C 2,7 km/h (1 Bft)
05.07.2012 17:35 24,7 C 59 % 0,0 l/m 2,3 km/h (1 Bft) N-NW 337 16,1 C 26,5 C 2,7 km/h (1 Bft)
05.07.2012 17:40 25,0 C 58 % 0,0 l/m 1,3 km/h (1 Bft) W-NW 292 16,1 C 26,6 C 2,4 km/h (1 Bft)
05.07.2012 17:45 24,8 C 58 % 0,0 l/m 1,8 km/h (1 Bft) W-NW 292 16,0 C 26,7 C 4,8 km/h (1 Bft)
05.07.2012 17:50 24,2 C 59 % 0,0 l/m 2,3 km/h (1 Bft) NW 315 15,7 C 26,3 C 0,0 km/h (0 Bft)
05.07.2012 17:55 23,8 C 60 % 0,0 l/m 1,4 km/h (1 Bft) N 360 15,6 C 25,8 C 0,0 km/h (0 Bft)
05.07.2012 18:00 23,3 C 63 % 0,0 l/m 0,6 km/h (0 Bft) W-SW 247 15,9 C 25,3 C 3,5 km/h (1 Bft)
05.07.2012 18:05 23,3 C 62 % 0,0 l/m 1,3 km/h (1 Bft) W-SW 247 15,6 C 24,9 C 3,5 km/h (1 Bft)
05.07.2012 18:10 23,2 C 62 % 0,0 l/m 1,9 km/h (1 Bft) S-SO 157 15,5 C 24,3 C 1,8 km/h (1 Bft)
05.07.2012 18:15 23,0 C 63 % 0,0 l/m 1,3 km/h (1 Bft) S-SO 157 15,6 C 24,0 C 2,3 km/h (1 Bft)
05.07.2012 18:20 22,0 C 68 % 0,0 l/m 1,8 km/h (1 Bft) S-SO 157 15,8 C 22,8 C 4,5 km/h (1 Bft)
05.07.2012 18:25 20,5 C 78 % 0,7 l/m 3,2 km/h (1 Bft) O 90 16,5 C 21,3 C 6,3 km/h (2 Bft)
05.07.2012 18:30 17,6 C 83 % 7,6 l/m 6,4 km/h (2 Bft) O-NO 67 14,7 C 19,3 C 15,4 km/h (3 Bft)
05.07.2012 18:32 16,4 C 86 % 2,1 l/m 3,5 km/h (1 Bft) NO 45 14,1 C 16,9 C 2,9 km/h (1 Bft)
05.07.2012 18:37 16,2 C 87 % 0,7 l/m 2,6 km/h (1 Bft) NO 45 14,0 C 16,5 C 0,0 km/h (0 Bft)
05.07.2012 18:42 16,0 C 87 % 0,7 l/m 1,0 km/h (0 Bft) S 180 13,8 C 16,3 C 2,7 km/h (1 Bft)
05.07.2012 18:49 16,0 C 87 % 0,0 l/m 1,0 km/h (0 Bft) S 180 13,8 C 16,3 C 2,7 km/h (1 Bft)
05.07.2012 18:55 16,0 C 88 % 0,0 l/m 1,0 km/h (0 Bft) NO 45 14,0 C 16,2 C 0,0 km/h (0 Bft)
05.07.2012 19:00 16,0 C 89 % 0,7 l/m 1,4 km/h (1 Bft) N 360 14,2 C 16,2 C 3,9 km/h (1 Bft)
05.07.2012 19:05 16,0 C 89 % 0,0 l/m 1,1 km/h (1 Bft) N 360 14,2 C 16,1 C 1,8 km/h (1 Bft)
05.07.2012 19:10 16,0 C 89 % 0,0 l/m 1,8 km/h (1 Bft) N 360 14,2 C 16,1 C 2,4 km/h (1 Bft)
05.07.2012 19:15 16,2 C 90 % 0,0 l/m 1,4 km/h (1 Bft) N-NW 337 14,6 C 16,2 C 1,8 km/h (1 Bft)
05.07.2012 19:20 16,1 C 90 % 0,0 l/m 0,6 km/h (0 Bft) O 90 14,5 C 16,3 C 1,8 km/h (1 Bft)
05.07.2012 19:25 16,1 C 90 % 0,0 l/m 0,8 km/h (0 Bft) NO 45 14,5 C 16,3 C 3,5 km/h (1 Bft)
05.07.2012 19:30 15,7 C 91 % 0,0 l/m 0,8 km/h (0 Bft) S 180 14,2 C 16,4 C 0,0 km/h (0 Bft)
05.07.2012 19:35 15,6 C 91 % 0,0 l/m 0,6 km/h (0 Bft) O-SO 112 14,1 C 16,4 C 0,0 km/h (0 Bft)
05.07.2012 19:40 15,9 C 91 % 0,0 l/m 0,3 km/h (0 Bft) N 360 14,4 C 16,7 C 0,0 km/h (0 Bft)
05.07.2012 19:45 16,2 C 90 % 0,0 l/m 0,5 km/h (0 Bft) NO 45 14,6 C 16,9 C 0,0 km/h (0 Bft)
05.07.2012 19:50 16,3 C 90 % 0,0 l/m 0,5 km/h (0 Bft) N-NO 22 14,7 C 17,0 C 0,0 km/h (0 Bft)
05.07.2012 19:55 16,2 C 90 % 0,0 l/m 0,2 km/h (0 Bft) SW 225 14,6 C 16,9 C 0,0 km/h (0 Bft)
05.07.2012 19:57 15,9 C 92 % 0,0 l/m 0,3 km/h (0 Bft) N-NO 22 14,6 C 16,6 C 0,0 km/h (0 Bft)
05.07.2012 20:02 15,9 C 92 % 0,0 l/m 0,3 km/h (0 Bft) S 180 14,6 C 16,4 C 0,0 km/h (0 Bft)
05.07.2012 20:07 15,9 C 92 % 0,0 l/m 0,6 km/h (0 Bft) W-NW 292 14,6 C 16,3 C 0,0 km/h (0 Bft)
05.07.2012 20:12 16,0 C 91 % 0,0 l/m 0,6 km/h (0 Bft) SO 135 14,5 C 16,3 C 0,0 km/h (0 Bft)
05.07.2012 20:17 16,1 C 91 % 0,7 l/m 0,3 km/h (0 Bft) N 360 14,6 C 16,3 C 1,6 km/h (1 Bft)
05.07.2012 20:22 16,1 C 91 % 0,0 l/m 0,2 km/h (0 Bft) SO 135 14,6 C 16,3 C 0,0 km/h (0 Bft)
05.07.2012 20:27 16,1 C 91 % 0,0 l/m 0,3 km/h (0 Bft) O 90 14,6 C 16,3 C 2,6 km/h (1 Bft)
05.07.2012 20:32 16,0 C 91 % 0,7 l/m 1,1 km/h (1 Bft) S-SW 202 14,5 C 16,2 C 0,0 km/h (0 Bft)
05.07.2012 20:37 16,0 C 91 % 0,0 l/m 1,9 km/h (1 Bft) S 180 14,5 C 16,1 C 3,9 km/h (1 Bft)
05.07.2012 20:42 15,8 C 93 % 0,0 l/m 1,4 km/h (1 Bft) O-SO 112 14,7 C 15,9 C 2,1 km/h (1 Bft)
05.07.2012 20:47 15,6 C 93 % 0,0 l/m 1,3 km/h (1 Bft) N 360 14,5 C 15,7 C 5,5 km/h (1 Bft)
05.07.2012 20:52 15,5 C 93 % 0,0 l/m 1,4 km/h (1 Bft) S 180 14,4 C 15,6 C 2,7 km/h (1 Bft)
05.07.2012 20:57 15,5 C 93 % 0,0 l/m 1,4 km/h (1 Bft) S 180 14,4 C 15,6 C 0,0 km/h (0 Bft)
05.07.2012 21:02 15,5 C 93 % 0,0 l/m 1,8 km/h (1 Bft) O-SO 112 14,4 C 15,5 C 4,7 km/h (1 Bft)
05.07.2012 21:07 15,5 C 93 % 0,0 l/m 2,7 km/h (1 Bft) S-SO 157 14,4 C 15,6 C 5,0 km/h (1 Bft)
05.07.2012 21:12 15,5 C 93 % 0,0 l/m 3,4 km/h (1 Bft) O-NO 67 14,4 C 15,6 C 6,1 km/h (2 Bft)
05.07.2012 21:17 15,6 C 93 % 0,0 l/m 3,2 km/h (1 Bft) O-SO 112 14,5 C 15,6 C 6,0 km/h (2 Bft)
05.07.2012 21:22 15,5 C 93 % 0,0 l/m 4,5 km/h (1 Bft) O 90 14,4 C 15,8 C 3,2 km/h (1 Bft)
05.07.2012 21:27 15,5 C 93 % 0,0 l/m 4,5 km/h (1 Bft) S 180 14,4 C 15,8 C 6,9 km/h (2 Bft)
05.07.2012 21:32 15,3 C 93 % 0,0 l/m 3,9 km/h (1 Bft) SO 135 14,2 C 15,7 C 5,3 km/h (1 Bft)
05.07.2012 21:37 15,2 C 93 % 0,0 l/m 4,2 km/h (1 Bft) S-SO 157 14,1 C 15,6 C 3,5 km/h (1 Bft)
05.07.2012 21:42 15,1 C 93 % 0,0 l/m 3,4 km/h (1 Bft) SO 135 14,0 C 15,5 C 1,9 km/h (1 Bft)
05.07.2012 21:47 15,1 C 93 % 0,0 l/m 3,1 km/h (1 Bft) O-NO 67 14,0 C 15,4 C 3,7 km/h (1 Bft)
05.07.2012 21:52 15,0 C 93 % 0,0 l/m 2,3 km/h (1 Bft) W 270 13,9 C 15,4 C 4,3 km/h (1 Bft)
05.07.2012 21:57 15,0 C 93 % 0,0 l/m 2,4 km/h (1 Bft) N-NO 22 13,9 C 15,4 C 2,1 km/h (1 Bft)
05.07.2012 22:02 14,9 C 93 % 0,0 l/m 2,1 km/h (1 Bft) O-SO 112 13,8 C 15,2 C 3,4 km/h (1 Bft)
05.07.2012 22:07 14,9 C 93 % 0,0 l/m 1,4 km/h (1 Bft) S-SW 202 13,8 C 15,1 C 2,6 km/h (1 Bft)
05.07.2012 22:12 14,8 C 93 % 0,0 l/m 0,8 km/h (0 Bft) W-SW 247 13,7 C 15,0 C 0,0 km/h (0 Bft)
05.07.2012 22:17 14,9 C 93 % 0,0 l/m 0,6 km/h (0 Bft) SO 135 13,8 C 14,9 C 0,0 km/h (0 Bft)
05.07.2012 22:22 14,8 C 93 % 0,0 l/m 0,8 km/h (0 Bft) N 360 13,7 C 14,9 C 0,0 km/h (0 Bft)
05.07.2012 22:27 14,8 C 93 % 0,0 l/m 0,8 km/h (0 Bft) S 180 13,7 C 14,9 C 0,0 km/h (0 Bft)
05.07.2012 22:32 14,7 C 93 % 0,0 l/m 0,6 km/h (0 Bft) S 180 13,6 C 14,8 C 3,5 km/h (1 Bft)
05.07.2012 22:37 14,8 C 94 % 0,0 l/m 1,0 km/h (0 Bft) N-NO 22 13,8 C 14,8 C 0,0 km/h (0 Bft)
05.07.2012 22:42 14,8 C 94 % 0,0 l/m 1,1 km/h (1 Bft) N 360 13,8 C 14,7 C 2,1 km/h (1 Bft)
05.07.2012 22:47 14,6 C 94 % 0,0 l/m 0,6 km/h (0 Bft) N-NO 22 13,6 C 14,7 C 3,7 km/h (1 Bft)
05.07.2012 22:52 14,5 C 94 % 0,0 l/m 0,5 km/h (0 Bft) N 360 13,5 C 14,6 C 0,0 km/h (0 Bft)
05.07.2012 22:57 14,6 C 94 % 0,0 l/m 0,2 km/h (0 Bft) SO 135 13,6 C 14,5 C 0,0 km/h (0 Bft)
05.07.2012 23:02 14,5 C 94 % 0,0 l/m 0,2 km/h (0 Bft) SO 135 13,5 C 14,5 C 0,0 km/h (0 Bft)
05.07.2012 23:07 14,5 C 94 % 0,0 l/m 0,2 km/h (0 Bft) W 270 13,5 C 14,4 C 0,0 km/h (0 Bft)
05.07.2012 23:12 14,5 C 94 % 0,0 l/m 0,8 km/h (0 Bft) NO 45 13,5 C 14,5 C 2,6 km/h (1 Bft)
05.07.2012 23:17 14,6 C 94 % 0,0 l/m 1,0 km/h (0 Bft) W-NW 292 13,6 C 14,5 C 2,7 km/h (1 Bft)
05.07.2012 23:22 14,5 C 94 % 0,0 l/m 0,6 km/h (0 Bft) NW 315 13,5 C 14,5 C 3,5 km/h (1 Bft)
05.07.2012 23:27 14,6 C 94 % 0,0 l/m 1,4 km/h (1 Bft) N-NO 22 13,6 C 14,6 C 2,3 km/h (1 Bft)
05.07.2012 23:32 14,6 C 94 % 0,0 l/m 1,8 km/h (1 Bft) W-NW 292 13,6 C 14,6 C 2,1 km/h (1 Bft)
05.07.2012 23:37 14,6 C 94 % 0,0 l/m 1,1 km/h (1 Bft) NW 315 13,6 C 14,6 C 2,3 km/h (1 Bft)
05.07.2012 23:42 14,5 C 94 % 0,0 l/m 0,6 km/h (0 Bft) N-NW 337 13,5 C 14,5 C 0,0 km/h (0 Bft)
05.07.2012 23:47 14,4 C 94 % 0,0 l/m 0,5 km/h (0 Bft) S 180 13,4 C 14,4 C 0,0 km/h (0 Bft)
05.07.2012 23:52 14,4 C 94 % 0,0 l/m 0,0 km/h (0 Bft) W 270 13,4 C 14,4 C 0,0 km/h (0 Bft)
05.07.2012 23:59 14,4 C 94 % 0,0 l/m 0,0 km/h (0 Bft) W 270 13,4 C 14,4 C 0,0 km/h (0 Bft)
_ Min-Zeit 05:45 16:25 - 23:59 - - 05:45 05:40 23:59
Minimum _ 12,0 C 45 % - 0,0 km/h (0 Bft) - - 11,2 C 11,7 C 0,0 km/h (0 Bft)
_ Max-Zeit 12:50 06:10 18:30 18:30 - - 09:05 15:55 18:30
Maximum _ 27,8 C 95 % 7,6 l/m 6,4 km/h
O-NO (2 Bft)
- - 18,9 C 31,3 C 15,4 km/h
O-NO (3 Bft)
Durchschnitt _ 19,3 C 76 % #13,7 l/m 1,8 km/h (1 Bft) W-NW - 14,3 C 20,7 C 2,5 km/h (1 Bft)